CGNBR MMTO-MM41
Flight info
| Callsign | CGNBR |
|---|---|
| Flight time | N/A |
| Altitude | 2500 |
| Route | MMTO MMCB MMCH MMAA MM41 |
| Aircraft | BE58/L-V/N |
Departure
| Time | 2026-05-07 10:16 |
|---|---|
| Airport | Adolfo López Mateos International Airport (MMTO) |
Arrival
| Time | N/A |
|---|---|
| Airport | MM41 |
| Time | Latitude | Longitude | Altitude | Speed | Heading |
|---|---|---|---|---|---|
| 2026-05-07 10:13 | 19.35419 | -99.57378 | 8492 ft | 0 kts | 156° |
| 2026-05-07 10:15 | 19.35355 | -99.57349 | 8488 ft | 39 kts | 156° |
| 2026-05-07 10:15 | 19.34903 | -99.57146 | 8485 ft | 100 kts | 158° |
| 2026-05-07 10:15 | 19.34113 | -99.56802 | 8485 ft | 142 kts | 158° |
| 2026-05-07 10:15 | 19.33131 | -99.56331 | 8547 ft | 165 kts | 153° |
| 2026-05-07 10:16 | 19.32151 | -99.55705 | 9019 ft | 163 kts | 144° |
| 2026-05-07 10:16 | 19.31294 | -99.54900 | 9371 ft | 168 kts | 131° |
| 2026-05-07 10:16 | 19.30636 | -99.53874 | 9658 ft | 170 kts | 116° |
| 2026-05-07 10:16 | 19.29971 | -99.52863 | 9869 ft | 170 kts | 143° |
| 2026-05-07 10:17 | 19.28956 | -99.52211 | 10181 ft | 170 kts | 150° |
| 2026-05-07 10:17 | 19.27929 | -99.51586 | 10475 ft | 171 kts | 150° |
| 2026-05-07 10:17 | 19.26914 | -99.50969 | 10739 ft | 171 kts | 150° |
| 2026-05-07 10:17 | 19.25877 | -99.50346 | 11000 ft | 172 kts | 150° |
| 2026-05-07 10:18 | 19.24832 | -99.49725 | 11275 ft | 172 kts | 150° |
| 2026-05-07 10:18 | 19.23787 | -99.49107 | 11558 ft | 172 kts | 150° |
| 2026-05-07 10:18 | 19.22738 | -99.48491 | 11825 ft | 174 kts | 150° |
| 2026-05-07 10:18 | 19.21628 | -99.47840 | 11835 ft | 190 kts | 150° |
| 2026-05-07 10:19 | 19.20436 | -99.47140 | 11821 ft | 201 kts | 150° |
| 2026-05-07 10:19 | 19.19192 | -99.46414 | 11802 ft | 208 kts | 149° |
| 2026-05-07 10:19 | 19.17921 | -99.45684 | 11779 ft | 213 kts | 150° |
| 2026-05-07 10:19 | 19.16608 | -99.44929 | 11759 ft | 216 kts | 150° |
| 2026-05-07 10:20 | 19.15279 | -99.44161 | 11732 ft | 218 kts | 150° |
| 2026-05-07 10:20 | 19.13944 | -99.43384 | 11699 ft | 220 kts | 150° |
| 2026-05-07 10:20 | 19.12605 | -99.42607 | 11676 ft | 220 kts | 149° |
| 2026-05-07 10:20 | 19.11257 | -99.41833 | 11653 ft | 220 kts | 150° |
| 2026-05-07 10:21 | 19.09906 | -99.41063 | 11626 ft | 221 kts | 150° |
| 2026-05-07 10:21 | 19.08551 | -99.40290 | 11604 ft | 221 kts | 150° |
| 2026-05-07 10:21 | 19.07197 | -99.39510 | 11580 ft | 222 kts | 150° |
| 2026-05-07 10:21 | 19.05861 | -99.38740 | 11546 ft | 222 kts | 150° |
| 2026-05-07 10:22 | 19.04509 | -99.37952 | 11520 ft | 222 kts | 150° |
| 2026-05-07 10:22 | 19.03153 | -99.37162 | 11492 ft | 222 kts | 150° |
| 2026-05-07 10:22 | 19.01799 | -99.36381 | 11491 ft | 222 kts | 150° |
| 2026-05-07 10:22 | 19.00449 | -99.35597 | 11466 ft | 221 kts | 150° |
| 2026-05-07 10:23 | 18.99105 | -99.34808 | 11464 ft | 221 kts | 150° |
| 2026-05-07 10:23 | 18.97752 | -99.34022 | 11452 ft | 222 kts | 150° |
| 2026-05-07 10:23 | 18.96396 | -99.33236 | 11451 ft | 222 kts | 150° |
| 2026-05-07 10:23 | 18.95061 | -99.32453 | 11450 ft | 222 kts | 150° |
| 2026-05-07 10:24 | 18.93709 | -99.31666 | 11444 ft | 222 kts | 150° |
| 2026-05-07 10:24 | 18.92350 | -99.30883 | 11443 ft | 222 kts | 150° |
| 2026-05-07 10:24 | 18.91065 | -99.30043 | 11047 ft | 201 kts | 129° |
| 2026-05-07 10:24 | 18.90867 | -99.28498 | 9068 ft | 235 kts | 86° |
| 2026-05-07 10:25 | 18.90934 | -99.27015 | 9028 ft | 176 kts | 88° |
| 2026-05-07 10:25 | 18.90966 | -99.25661 | 8178 ft | 182 kts | 91° |
| 2026-05-07 10:25 | 18.90675 | -99.24418 | 7658 ft | 174 kts | 119° |
| 2026-05-07 10:25 | 18.89635 | -99.23891 | 6846 ft | 179 kts | 178° |
| 2026-05-07 10:26 | 18.88448 | -99.23858 | 5903 ft | 165 kts | 178° |
| 2026-05-07 10:26 | 18.87419 | -99.23855 | 5243 ft | 140 kts | 181° |
| 2026-05-07 10:26 | 18.86555 | -99.24104 | 4787 ft | 125 kts | 210° |
| 2026-05-07 10:26 | 18.85799 | -99.24587 | 4533 ft | 126 kts | 217° |
| 2026-05-07 10:27 | 18.85073 | -99.25097 | 4355 ft | 123 kts | 212° |
| 2026-05-07 10:27 | 18.84411 | -99.25537 | 4189 ft | 94 kts | 210° |
| 2026-05-07 10:27 | 18.83991 | -99.25813 | 4180 ft | 36 kts | 214° |
| 2026-05-07 10:27 | 18.83854 | -99.25918 | 4180 ft | 23 kts | 211° |
| 2026-05-07 10:28 | 18.83718 | -99.25995 | 4175 ft | 21 kts | 206° |
| 2026-05-07 10:28 | 18.83587 | -99.26054 | 4176 ft | 20 kts | 201° |
| 2026-05-07 10:28 | 18.83524 | -99.26080 | 4175 ft | 0 kts | 205° |
| 2026-05-07 10:28 | 18.83483 | -99.26115 | 4175 ft | 34 kts | 218° |
| 2026-05-07 10:29 | 18.83263 | -99.26281 | 4175 ft | 52 kts | 211° |
| 2026-05-07 10:29 | 18.82740 | -99.26621 | 4177 ft | 118 kts | 210° |
| 2026-05-07 10:29 | 18.81904 | -99.27095 | 4247 ft | 150 kts | 197° |
| 2026-05-07 10:30 | 18.79652 | -99.26945 | 4631 ft | 160 kts | 187° |
| 2026-05-07 10:30 | 18.78548 | -99.27136 | 4897 ft | 167 kts | 191° |
| 2026-05-07 10:30 | 18.77391 | -99.27382 | 5061 ft | 176 kts | 191° |
| 2026-05-07 10:30 | 18.76163 | -99.27634 | 5221 ft | 183 kts | 191° |
| 2026-05-07 10:31 | 18.74902 | -99.27888 | 5359 ft | 186 kts | 191° |
| 2026-05-07 10:31 | 18.73617 | -99.28147 | 5512 ft | 189 kts | 191° |
| 2026-05-07 10:31 | 18.72317 | -99.28411 | 5662 ft | 191 kts | 191° |
| 2026-05-07 10:31 | 18.71005 | -99.28677 | 5810 ft | 193 kts | 191° |
| 2026-05-07 10:32 | 18.69682 | -99.28945 | 5958 ft | 194 kts | 191° |
| 2026-05-07 10:32 | 18.68351 | -99.29215 | 6106 ft | 195 kts | 191° |
| 2026-05-07 10:32 | 18.67012 | -99.29485 | 6252 ft | 196 kts | 191° |
| 2026-05-07 10:32 | 18.65666 | -99.29758 | 6392 ft | 197 kts | 191° |
| 2026-05-07 10:33 | 18.64333 | -99.30028 | 6527 ft | 198 kts | 191° |
| 2026-05-07 10:33 | 18.62978 | -99.30303 | 6664 ft | 199 kts | 191° |
| 2026-05-07 10:33 | 18.61618 | -99.30579 | 6802 ft | 199 kts | 191° |
| 2026-05-07 10:33 | 18.60254 | -99.30856 | 6935 ft | 200 kts | 191° |
| 2026-05-07 10:34 | 18.58887 | -99.31132 | 7068 ft | 200 kts | 191° |
| 2026-05-07 10:34 | 18.57516 | -99.31409 | 7207 ft | 201 kts | 191° |
| 2026-05-07 10:34 | 18.56140 | -99.31687 | 7349 ft | 202 kts | 191° |
| 2026-05-07 10:34 | 18.54760 | -99.31966 | 7488 ft | 202 kts | 191° |
| 2026-05-07 10:35 | 18.53398 | -99.32242 | 7623 ft | 202 kts | 192° |
| 2026-05-07 10:35 | 18.52020 | -99.32520 | 7762 ft | 201 kts | 193° |
| 2026-05-07 10:35 | 18.50646 | -99.32798 | 7871 ft | 203 kts | 192° |
| 2026-05-07 10:35 | 18.49235 | -99.33084 | 7875 ft | 210 kts | 192° |
| 2026-05-07 10:36 | 18.47785 | -99.33377 | 7884 ft | 214 kts | 192° |
| 2026-05-07 10:36 | 18.46311 | -99.33675 | 7886 ft | 217 kts | 192° |
| 2026-05-07 10:36 | 18.44828 | -99.33975 | 7885 ft | 218 kts | 192° |
| 2026-05-07 10:36 | 18.43339 | -99.34275 | 7885 ft | 218 kts | 192° |
| 2026-05-07 10:37 | 18.41865 | -99.34572 | 7881 ft | 219 kts | 192° |
| 2026-05-07 10:37 | 18.40363 | -99.34877 | 7882 ft | 220 kts | 192° |
| 2026-05-07 10:37 | 18.38861 | -99.35180 | 7882 ft | 219 kts | 192° |
| 2026-05-07 10:37 | 18.37363 | -99.35482 | 7882 ft | 219 kts | 192° |
| 2026-05-07 10:38 | 18.35862 | -99.35785 | 7877 ft | 220 kts | 192° |
| 2026-05-07 10:38 | 18.34357 | -99.36088 | 7874 ft | 220 kts | 192° |
| 2026-05-07 10:38 | 18.32858 | -99.36390 | 7881 ft | 219 kts | 192° |
| 2026-05-07 10:38 | 18.31362 | -99.36693 | 7881 ft | 219 kts | 192° |
| 2026-05-07 10:39 | 18.29881 | -99.36991 | 7882 ft | 220 kts | 192° |
| 2026-05-07 10:39 | 18.28378 | -99.37294 | 7879 ft | 220 kts | 192° |
| 2026-05-07 10:39 | 18.26875 | -99.37597 | 7880 ft | 220 kts | 192° |
| 2026-05-07 10:39 | 18.25373 | -99.37899 | 7878 ft | 220 kts | 192° |
| 2026-05-07 10:40 | 18.23872 | -99.38202 | 7875 ft | 220 kts | 193° |
| 2026-05-07 10:40 | 18.22371 | -99.38505 | 7877 ft | 220 kts | 192° |
| 2026-05-07 10:40 | 18.20870 | -99.38806 | 7883 ft | 220 kts | 192° |
| 2026-05-07 10:40 | 18.19366 | -99.39110 | 7887 ft | 220 kts | 192° |
| 2026-05-07 10:41 | 18.17860 | -99.39413 | 7883 ft | 221 kts | 192° |
| 2026-05-07 10:41 | 18.16366 | -99.39714 | 7880 ft | 221 kts | 192° |
| 2026-05-07 10:41 | 18.14853 | -99.40018 | 7880 ft | 221 kts | 192° |
| 2026-05-07 10:41 | 18.13340 | -99.40322 | 7881 ft | 222 kts | 192° |
| 2026-05-07 10:42 | 18.11821 | -99.40628 | 7881 ft | 222 kts | 192° |
| 2026-05-07 10:42 | 18.10303 | -99.40934 | 7881 ft | 221 kts | 192° |
| 2026-05-07 10:42 | 18.08791 | -99.41238 | 7881 ft | 222 kts | 192° |
| 2026-05-07 10:42 | 18.07274 | -99.41543 | 7882 ft | 222 kts | 193° |
| 2026-05-07 10:43 | 18.05752 | -99.41848 | 7878 ft | 223 kts | 192° |
| 2026-05-07 10:43 | 18.04234 | -99.42154 | 7879 ft | 222 kts | 193° |
| 2026-05-07 10:43 | 18.02738 | -99.42454 | 7883 ft | 222 kts | 192° |
| 2026-05-07 10:43 | 18.01223 | -99.42759 | 7879 ft | 222 kts | 192° |
| 2026-05-07 10:44 | 17.99707 | -99.43064 | 7875 ft | 222 kts | 192° |
| 2026-05-07 10:44 | 17.98191 | -99.43368 | 7875 ft | 222 kts | 193° |
| 2026-05-07 10:44 | 17.96677 | -99.43672 | 7875 ft | 221 kts | 192° |
| 2026-05-07 10:44 | 17.95164 | -99.43976 | 7876 ft | 222 kts | 192° |
| 2026-05-07 10:45 | 17.93649 | -99.44280 | 7877 ft | 222 kts | 192° |
| 2026-05-07 10:45 | 17.92134 | -99.44584 | 7899 ft | 222 kts | 192° |
| 2026-05-07 10:45 | 17.90617 | -99.44888 | 7898 ft | 222 kts | 192° |
| 2026-05-07 10:45 | 17.89120 | -99.45189 | 7900 ft | 223 kts | 192° |
| 2026-05-07 10:46 | 17.87599 | -99.45495 | 7899 ft | 223 kts | 193° |
| 2026-05-07 10:46 | 17.86076 | -99.45799 | 7900 ft | 222 kts | 192° |
| 2026-05-07 10:46 | 17.84558 | -99.46104 | 7900 ft | 222 kts | 192° |
| 2026-05-07 10:46 | 17.83038 | -99.46409 | 7903 ft | 222 kts | 192° |
| 2026-05-07 10:47 | 17.81519 | -99.46713 | 7899 ft | 222 kts | 192° |
| 2026-05-07 10:47 | 17.80002 | -99.47018 | 7898 ft | 222 kts | 192° |
| 2026-05-07 10:47 | 17.78487 | -99.47321 | 7935 ft | 222 kts | 192° |
| 2026-05-07 10:47 | 17.76972 | -99.47625 | 7934 ft | 222 kts | 192° |
| 2026-05-07 10:48 | 17.75474 | -99.47925 | 7937 ft | 222 kts | 192° |
| 2026-05-07 10:48 | 17.73961 | -99.48228 | 7935 ft | 221 kts | 192° |
| 2026-05-07 10:48 | 17.72447 | -99.48531 | 7935 ft | 222 kts | 192° |
| 2026-05-07 10:48 | 17.70933 | -99.48835 | 7934 ft | 222 kts | 192° |
| 2026-05-07 10:49 | 17.69420 | -99.49137 | 7932 ft | 222 kts | 192° |
| 2026-05-07 10:49 | 17.67905 | -99.49440 | 7933 ft | 221 kts | 192° |
| 2026-05-07 10:49 | 17.66394 | -99.49743 | 7932 ft | 221 kts | 192° |
| 2026-05-07 10:49 | 17.64880 | -99.50046 | 7964 ft | 222 kts | 192° |
| 2026-05-07 10:50 | 17.63512 | -99.50537 | 7576 ft | 197 kts | 228° |
| 2026-05-07 10:50 | 17.62708 | -99.51693 | 5865 ft | 212 kts | 224° |
| 2026-05-07 10:50 | 17.61808 | -99.52226 | 5173 ft | 198 kts | 201° |
| 2026-05-07 10:50 | 17.60731 | -99.52496 | 5348 ft | 132 kts | 184° |
| 2026-05-07 10:51 | 17.59831 | -99.52390 | 4919 ft | 127 kts | 167° |
| 2026-05-07 10:51 | 17.58955 | -99.52145 | 4526 ft | 136 kts | 163° |
| 2026-05-07 10:51 | 17.58107 | -99.51835 | 4174 ft | 116 kts | 157° |
| 2026-05-07 10:51 | 17.57495 | -99.51571 | 4133 ft | 77 kts | 159° |
| 2026-05-07 10:52 | 17.57087 | -99.51384 | 4131 ft | 42 kts | 154° |
| 2026-05-07 10:52 | 17.56937 | -99.51322 | 4131 ft | 18 kts | 153° |
| 2026-05-07 10:52 | 17.56887 | -99.51322 | 4131 ft | 0 kts | 215° |
| 2026-05-07 11:15 | 17.56886 | -99.51323 | 4129 ft | 3 kts | 215° |
| 2026-05-07 11:15 | 17.56982 | -99.51349 | 4134 ft | 36 kts | 348° |
| 2026-05-07 11:15 | 17.57402 | -99.51536 | 4135 ft | 102 kts | 336° |
| 2026-05-07 11:15 | 17.58001 | -99.51972 | 4281 ft | 90 kts | 313° |
| 2026-05-07 11:16 | 19.35409 | -99.57374 | 4135 ft | 0 kts | 156° |
| 2026-05-07 11:16 | 19.35419 | -99.57378 | 8492 ft | 0 kts | 156° |
| 2026-05-07 11:17 | 17.56866 | -99.51292 | 4134 ft | 0 kts | 337° |
| 2026-05-07 11:18 | 17.56880 | -99.51299 | 4134 ft | 21 kts | 338° |
| 2026-05-07 11:19 | 17.57299 | -99.51481 | 4135 ft | 103 kts | 337° |
| 2026-05-07 11:19 | 17.58095 | -99.51855 | 4220 ft | 142 kts | 332° |
| 2026-05-07 11:19 | 17.58855 | -99.52488 | 4715 ft | 134 kts | 300° |
| 2026-05-07 11:19 | 17.59011 | -99.53444 | 5126 ft | 139 kts | 251° |
| 2026-05-07 11:20 | 17.58231 | -99.53776 | 5431 ft | 151 kts | 149° |
| 2026-05-07 11:20 | 17.57498 | -99.52912 | 5589 ft | 170 kts | 112° |
| 2026-05-07 11:20 | 17.57154 | -99.51756 | 5954 ft | 163 kts | 125° |
| 2026-05-07 11:20 | 17.56229 | -99.51122 | 6265 ft | 167 kts | 173° |
| 2026-05-07 11:21 | 17.55118 | -99.51409 | 6493 ft | 171 kts | 217° |
| 2026-05-07 11:21 | 17.54191 | -99.52211 | 6720 ft | 176 kts | 218° |
| 2026-05-07 11:21 | 17.53105 | -99.52803 | 6945 ft | 182 kts | 201° |
| 2026-05-07 11:21 | 17.51873 | -99.53179 | 7163 ft | 186 kts | 196° |
| 2026-05-07 11:22 | 17.50617 | -99.53531 | 7398 ft | 188 kts | 195° |
| 2026-05-07 11:22 | 17.49376 | -99.53824 | 7875 ft | 167 kts | 183° |
| 2026-05-07 11:22 | 17.48288 | -99.53617 | 8455 ft | 162 kts | 163° |
| 2026-05-07 11:22 | 17.47167 | -99.53697 | 8745 ft | 169 kts | 210° |
| 2026-05-07 11:23 | 17.46245 | -99.54481 | 9068 ft | 174 kts | 220° |
| 2026-05-07 11:23 | 17.45185 | -99.55120 | 9377 ft | 179 kts | 201° |
| 2026-05-07 11:23 | 17.43981 | -99.55495 | 9695 ft | 182 kts | 195° |
| 2026-05-07 11:23 | 17.42765 | -99.55834 | 9975 ft | 185 kts | 195° |
| 2026-05-07 11:24 | 17.41469 | -99.56209 | 10028 ft | 201 kts | 195° |
| 2026-05-07 11:24 | 17.40082 | -99.56615 | 10032 ft | 212 kts | 195° |
| 2026-05-07 11:24 | 17.38637 | -99.57038 | 10035 ft | 220 kts | 196° |
| 2026-05-07 11:24 | 17.37148 | -99.57473 | 10032 ft | 224 kts | 195° |
| 2026-05-07 11:25 | 17.35641 | -99.57913 | 10033 ft | 226 kts | 195° |
| 2026-05-07 11:25 | 17.34122 | -99.58359 | 10035 ft | 228 kts | 196° |
| 2026-05-07 11:25 | 17.32594 | -99.58805 | 10032 ft | 229 kts | 196° |
| 2026-05-07 11:25 | 17.31058 | -99.59255 | 10035 ft | 229 kts | 196° |
| 2026-05-07 11:26 | 17.29520 | -99.59704 | 10030 ft | 230 kts | 196° |
| 2026-05-07 11:26 | 17.28001 | -99.60147 | 10029 ft | 230 kts | 195° |
| 2026-05-07 11:26 | 17.26461 | -99.60598 | 10030 ft | 230 kts | 196° |
| 2026-05-07 11:26 | 17.24921 | -99.61048 | 10031 ft | 230 kts | 196° |
| 2026-05-07 11:27 | 17.23379 | -99.61498 | 10019 ft | 230 kts | 196° |
| 2026-05-07 11:27 | 17.21837 | -99.61948 | 10019 ft | 230 kts | 196° |
| 2026-05-07 11:27 | 17.20297 | -99.62398 | 10021 ft | 230 kts | 195° |
| 2026-05-07 11:27 | 17.18756 | -99.62847 | 10019 ft | 230 kts | 195° |
| 2026-05-07 11:28 | 17.17219 | -99.63296 | 10020 ft | 230 kts | 196° |
| 2026-05-07 11:28 | 17.15678 | -99.63745 | 10021 ft | 230 kts | 196° |
| 2026-05-07 11:28 | 17.14161 | -99.64189 | 10020 ft | 229 kts | 196° |
| 2026-05-07 11:28 | 17.12626 | -99.64636 | 10019 ft | 229 kts | 196° |
| 2026-05-07 11:29 | 17.11094 | -99.65083 | 10023 ft | 229 kts | 196° |
| 2026-05-07 11:29 | 17.09562 | -99.65529 | 10003 ft | 229 kts | 196° |
| 2026-05-07 11:29 | 17.08028 | -99.65977 | 10002 ft | 229 kts | 196° |
| 2026-05-07 11:29 | 17.06493 | -99.66425 | 10003 ft | 229 kts | 196° |
| 2026-05-07 11:30 | 17.04961 | -99.66873 | 10003 ft | 228 kts | 196° |
| 2026-05-07 11:30 | 17.03430 | -99.67319 | 10003 ft | 228 kts | 196° |
| 2026-05-07 11:30 | 17.01921 | -99.67758 | 10003 ft | 228 kts | 196° |
| 2026-05-07 11:30 | 17.00392 | -99.68203 | 10001 ft | 228 kts | 196° |
| 2026-05-07 11:31 | 16.98862 | -99.68648 | 9999 ft | 228 kts | 196° |
| 2026-05-07 11:31 | 16.97333 | -99.69093 | 9999 ft | 228 kts | 196° |
| 2026-05-07 11:31 | 16.95805 | -99.69538 | 9999 ft | 228 kts | 196° |
| 2026-05-07 11:31 | 16.94279 | -99.69982 | 9980 ft | 228 kts | 196° |
| 2026-05-07 11:32 | 16.91225 | -99.70871 | 9977 ft | 228 kts | 196° |
| 2026-05-07 11:32 | 16.89696 | -99.71315 | 9977 ft | 228 kts | 196° |
| 2026-05-07 11:32 | 16.88169 | -99.71760 | 9977 ft | 228 kts | 195° |
| 2026-05-07 11:33 | 16.86664 | -99.72197 | 9936 ft | 228 kts | 196° |
| 2026-05-07 11:33 | 16.85136 | -99.72642 | 9933 ft | 228 kts | 196° |
| 2026-05-07 11:33 | 16.83608 | -99.73086 | 9932 ft | 228 kts | 196° |
| 2026-05-07 11:33 | 16.82080 | -99.73530 | 9932 ft | 228 kts | 196° |
| 2026-05-07 11:34 | 16.80648 | -99.74215 | 9929 ft | 228 kts | 215° |
| 2026-05-07 11:34 | 16.79519 | -99.75362 | 9928 ft | 228 kts | 234° |
| 2026-05-07 11:34 | 16.78821 | -99.76811 | 9921 ft | 207 kts | 253° |
| 2026-05-07 11:34 | 16.78611 | -99.78143 | 9719 ft | 172 kts | 270° |
| 2026-05-07 11:35 | 16.78713 | -99.79310 | 9426 ft | 161 kts | 283° |
| 2026-05-07 11:35 | 16.79079 | -99.80427 | 9159 ft | 164 kts | 297° |
| 2026-05-07 11:35 | 16.79684 | -99.81437 | 8909 ft | 164 kts | 305° |
| 2026-05-07 11:35 | 16.80331 | -99.82421 | 8665 ft | 164 kts | 304° |
| 2026-05-07 11:36 | 16.80972 | -99.83407 | 8418 ft | 164 kts | 304° |
| 2026-05-07 11:36 | 16.81610 | -99.84382 | 8189 ft | 162 kts | 304° |
| 2026-05-07 11:36 | 16.82241 | -99.85345 | 7949 ft | 160 kts | 304° |
| 2026-05-07 11:36 | 16.82867 | -99.86300 | 7720 ft | 159 kts | 304° |
| 2026-05-07 11:37 | 16.83493 | -99.87255 | 7483 ft | 159 kts | 303° |
| 2026-05-07 11:37 | 16.84106 | -99.88192 | 7255 ft | 158 kts | 303° |
| 2026-05-07 11:37 | 16.84724 | -99.89137 | 7024 ft | 157 kts | 303° |
| 2026-05-07 11:37 | 16.85339 | -99.90076 | 6795 ft | 156 kts | 303° |
| 2026-05-07 11:38 | 16.85952 | -99.91012 | 6567 ft | 156 kts | 303° |
| 2026-05-07 11:38 | 16.86562 | -99.91943 | 6340 ft | 155 kts | 303° |
| 2026-05-07 11:38 | 16.87167 | -99.92867 | 6102 ft | 154 kts | 303° |
| 2026-05-07 11:38 | 16.87772 | -99.93791 | 5882 ft | 155 kts | 303° |
| 2026-05-07 11:39 | 16.88380 | -99.94719 | 5637 ft | 155 kts | 303° |
| 2026-05-07 11:39 | 16.88977 | -99.95634 | 5399 ft | 155 kts | 303° |
| 2026-05-07 11:39 | 16.89585 | -99.96562 | 5161 ft | 155 kts | 303° |
| 2026-05-07 11:39 | 16.90189 | -99.97491 | 4547 ft | 161 kts | 303° |
| 2026-05-07 11:40 | 16.91199 | -99.97744 | 3370 ft | 158 kts | 31° |
| 2026-05-07 11:40 | 16.91583 | -99.96835 | 2610 ft | 138 kts | 102° |
| 2026-05-07 11:40 | 16.91004 | -99.96106 | 1777 ft | 134 kts | 156° |
| 2026-05-07 11:40 | 16.90112 | -99.96089 | 1041 ft | 129 kts | 200° |
| 2026-05-07 11:41 | 16.89564 | -99.96758 | 452 ft | 137 kts | 266° |
| 2026-05-07 11:41 | 16.90201 | -99.97296 | 298 ft | 122 kts | 334° |
| 2026-05-07 11:41 | 16.90718 | -99.97824 | 102 ft | 108 kts | 289° |
| 2026-05-07 11:41 | 16.90934 | -99.98472 | 4 ft | 76 kts | 287° |
| 2026-05-07 11:42 | 16.91057 | -99.98834 | 3 ft | 17 kts | 299° |
| 2026-05-07 11:42 | 16.91052 | -99.98767 | 2 ft | 19 kts | 112° |
| 2026-05-07 11:42 | 16.91005 | -99.98648 | 2 ft | 17 kts | 112° |
| 2026-05-07 11:42 | 16.90964 | -99.98545 | 3 ft | 14 kts | 112° |
| 2026-05-07 11:43 | 16.90932 | -99.98462 | 3 ft | 11 kts | 112° |
| 2026-05-07 11:43 | 16.90907 | -99.98396 | 4 ft | 9 kts | 112° |
| 2026-05-07 11:43 | 16.90886 | -99.98342 | 7 ft | 7 kts | 112° |
| 2026-05-07 11:43 | 16.90868 | -99.98298 | 7 ft | 6 kts | 125° |
| 2026-05-07 11:44 | 16.90798 | -99.98300 | 2 ft | 7 kts | 190° |
| 2026-05-07 11:44 | 16.90796 | -99.98300 | 1 ft | 0 kts | 190° |